sensor_id;sensor_type;location;lat;lon;timestamp;temperature;humidity
27922;DHT22;15261;50.356;10.340;2022-12-18T00:00:23;-9.30;99.90
27922;DHT22;15261;50.356;10.340;2022-12-18T00:02:59;-9.30;99.90
27922;DHT22;15261;50.356;10.340;2022-12-18T00:05:36;-9.50;99.90
27922;DHT22;15261;50.356;10.340;2022-12-18T00:08:02;-9.60;99.90
27922;DHT22;15261;50.356;10.340;2022-12-18T00:10:28;-9.70;99.90
27922;DHT22;15261;50.356;10.340;2022-12-18T00:12:54;-9.70;99.90
27922;DHT22;15261;50.356;10.340;2022-12-18T00:15:20;-9.80;99.90
27922;DHT22;15261;50.356;10.340;2022-12-18T00:17:46;-9.80;99.90
27922;DHT22;15261;50.356;10.340;2022-12-18T00:20:11;-9.70;99.90
27922;DHT22;15261;50.356;10.340;2022-12-18T00:22:37;-9.70;99.90
27922;DHT22;15261;50.356;10.340;2022-12-18T00:25:02;-9.60;99.90
27922;DHT22;15261;50.356;10.340;2022-12-18T00:27:28;-9.60;99.90
27922;DHT22;15261;50.356;10.340;2022-12-18T00:29:54;-9.50;99.90
27922;DHT22;15261;50.356;10.340;2022-12-18T00:32:19;-9.40;99.90
27922;DHT22;15261;50.356;10.340;2022-12-18T00:34:45;-9.40;99.90
27922;DHT22;15261;50.356;10.340;2022-12-18T00:37:10;-9.30;99.90
27922;DHT22;15261;50.356;10.340;2022-12-18T00:39:36;-9.30;99.90
27922;DHT22;15261;50.356;10.340;2022-12-18T00:42:01;-9.30;99.90
27922;DHT22;15261;50.356;10.340;2022-12-18T00:44:45;-9.30;99.90
27922;DHT22;15261;50.356;10.340;2022-12-18T00:47:11;-9.30;99.90
27922;DHT22;15261;50.356;10.340;2022-12-18T00:49:36;-9.40;99.90
27922;DHT22;15261;50.356;10.340;2022-12-18T00:52:02;-9.40;99.90
27922;DHT22;15261;50.356;10.340;2022-12-18T00:54:27;-9.50;99.90
27922;DHT22;15261;50.356;10.340;2022-12-18T00:56:53;-9.40;99.90
27922;DHT22;15261;50.356;10.340;2022-12-18T00:59:27;-9.30;99.90
27922;DHT22;15261;50.356;10.340;2022-12-18T01:01:53;-9.30;99.90
27922;DHT22;15261;50.356;10.340;2022-12-18T01:04:18;-9.30;99.90
27922;DHT22;15261;50.356;10.340;2022-12-18T01:07:17;-9.30;99.90
27922;DHT22;15261;50.356;10.340;2022-12-18T01:16:19;-9.20;99.90
27922;DHT22;15261;50.356;10.340;2022-12-18T01:22:08;-9.10;99.90
27922;DHT22;15261;50.356;10.340;2022-12-18T01:25:08;-9.10;99.90
27922;DHT22;15261;50.356;10.340;2022-12-18T01:27:34;-9.20;99.90
27922;DHT22;15261;50.356;10.340;2022-12-18T01:30:00;-9.20;99.90
27922;DHT22;15261;50.356;10.340;2022-12-18T01:32:25;-9.20;99.90
27922;DHT22;15261;50.356;10.340;2022-12-18T01:34:51;-9.20;99.90
27922;DHT22;15261;50.356;10.340;2022-12-18T01:37:16;-9.30;99.90
27922;DHT22;15261;50.356;10.340;2022-12-18T01:39:42;-9.30;99.90
27922;DHT22;15261;50.356;10.340;2022-12-18T01:42:12;-9.30;99.90
27922;DHT22;15261;50.356;10.340;2022-12-18T01:44:59;-9.30;99.90
27922;DHT22;15261;50.356;10.340;2022-12-18T01:47:46;-9.40;99.90
27922;DHT22;15261;50.356;10.340;2022-12-18T01:50:38;-9.40;99.90
27922;DHT22;15261;50.356;10.340;2022-12-18T01:53:17;-9.40;99.90
27922;DHT22;15261;50.356;10.340;2022-12-18T01:55:48;-9.40;99.90
27922;DHT22;15261;50.356;10.340;2022-12-18T01:58:15;-9.50;99.90
27922;DHT22;15261;50.356;10.340;2022-12-18T02:00:41;-9.60;99.90
27922;DHT22;15261;50.356;10.340;2022-12-18T02:03:07;-9.60;99.90
27922;DHT22;15261;50.356;10.340;2022-12-18T02:05:44;-9.50;99.90
27922;DHT22;15261;50.356;10.340;2022-12-18T02:16:54;-9.50;99.90
27922;DHT22;15261;50.356;10.340;2022-12-18T02:19:38;-9.60;99.90
27922;DHT22;15261;50.356;10.340;2022-12-18T02:27:09;-9.50;99.90
27922;DHT22;15261;50.356;10.340;2022-12-18T02:29:54;-9.50;99.90
27922;DHT22;15261;50.356;10.340;2022-12-18T02:32:30;-9.50;99.90
27922;DHT22;15261;50.356;10.340;2022-12-18T02:34:57;-9.40;99.90
27922;DHT22;15261;50.356;10.340;2022-12-18T02:37:24;-9.50;99.90
27922;DHT22;15261;50.356;10.340;2022-12-18T02:39:53;-9.50;99.90
27922;DHT22;15261;50.356;10.340;2022-12-18T02:42:20;-9.50;99.90
27922;DHT22;15261;50.356;10.340;2022-12-18T02:44:50;-9.50;99.90
27922;DHT22;15261;50.356;10.340;2022-12-18T02:47:22;-9.50;99.90
27922;DHT22;15261;50.356;10.340;2022-12-18T02:55:25;-9.50;99.90
27922;DHT22;15261;50.356;10.340;2022-12-18T02:58:03;-9.70;99.90
27922;DHT22;15261;50.356;10.340;2022-12-18T03:00:43;-9.70;99.90
27922;DHT22;15261;50.356;10.340;2022-12-18T03:03:18;-9.70;99.90
27922;DHT22;15261;50.356;10.340;2022-12-18T03:06:06;-9.70;99.90
27922;DHT22;15261;50.356;10.340;2022-12-18T03:08:38;-9.60;99.90
27922;DHT22;15261;50.356;10.340;2022-12-18T03:11:12;-9.60;99.90
27922;DHT22;15261;50.356;10.340;2022-12-18T03:13:48;-9.60;99.90
27922;DHT22;15261;50.356;10.340;2022-12-18T03:16:24;-9.60;99.90
27922;DHT22;15261;50.356;10.340;2022-12-18T03:19:06;-9.60;99.90
27922;DHT22;15261;50.356;10.340;2022-12-18T03:21:42;-9.60;99.90
27922;DHT22;15261;50.356;10.340;2022-12-18T03:24:09;-9.60;99.90
27922;DHT22;15261;50.356;10.340;2022-12-18T03:26:38;-9.70;99.90
27922;DHT22;15261;50.356;10.340;2022-12-18T03:29:25;-9.80;99.90
27922;DHT22;15261;50.356;10.340;2022-12-18T03:31:55;-9.90;99.90
27922;DHT22;15261;50.356;10.340;2022-12-18T03:34:30;-9.90;99.90
27922;DHT22;15261;50.356;10.340;2022-12-18T03:36:57;-10.00;99.90
27922;DHT22;15261;50.356;10.340;2022-12-18T03:39:24;-10.20;99.90
27922;DHT22;15261;50.356;10.340;2022-12-18T03:42:27;-10.30;99.90
27922;DHT22;15261;50.356;10.340;2022-12-18T03:45:22;-10.30;99.90
27922;DHT22;15261;50.356;10.340;2022-12-18T03:50:34;-10.20;99.90
27922;DHT22;15261;50.356;10.340;2022-12-18T03:55:41;-10.20;99.90
27922;DHT22;15261;50.356;10.340;2022-12-18T03:58:10;-10.20;99.90
27922;DHT22;15261;50.356;10.340;2022-12-18T04:00:39;-10.20;99.90
27922;DHT22;15261;50.356;10.340;2022-12-18T04:03:05;-10.20;99.90
27922;DHT22;15261;50.356;10.340;2022-12-18T04:05:34;-10.20;99.90
27922;DHT22;15261;50.356;10.340;2022-12-18T04:08:01;-10.10;99.90
27922;DHT22;15261;50.356;10.340;2022-12-18T04:10:27;-10.10;99.90
27922;DHT22;15261;50.356;10.340;2022-12-18T04:12:55;-10.10;99.90
27922;DHT22;15261;50.356;10.340;2022-12-18T04:15:21;-10.00;99.90
27922;DHT22;15261;50.356;10.340;2022-12-18T04:17:48;-10.00;99.90
27922;DHT22;15261;50.356;10.340;2022-12-18T04:20:14;-10.10;99.90
27922;DHT22;15261;50.356;10.340;2022-12-18T04:22:40;-10.10;99.90
27922;DHT22;15261;50.356;10.340;2022-12-18T04:25:05;-10.10;99.90
27922;DHT22;15261;50.356;10.340;2022-12-18T04:27:31;-10.20;99.90
27922;DHT22;15261;50.356;10.340;2022-12-18T04:29:56;-10.20;99.90
27922;DHT22;15261;50.356;10.340;2022-12-18T04:32:22;-10.30;99.90
27922;DHT22;15261;50.356;10.340;2022-12-18T04:34:48;-10.30;99.90
27922;DHT22;15261;50.356;10.340;2022-12-18T04:37:13;-10.20;99.90
27922;DHT22;15261;50.356;10.340;2022-12-18T04:39:39;-10.20;99.90
27922;DHT22;15261;50.356;10.340;2022-12-18T04:42:05;-10.10;99.90
27922;DHT22;15261;50.356;10.340;2022-12-18T04:44:30;-10.20;99.90
27922;DHT22;15261;50.356;10.340;2022-12-18T04:46:56;-10.20;99.90
27922;DHT22;15261;50.356;10.340;2022-12-18T04:49:22;-10.20;99.90
27922;DHT22;15261;50.356;10.340;2022-12-18T04:51:47;-10.20;99.90
27922;DHT22;15261;50.356;10.340;2022-12-18T04:54:13;-10.20;99.90
27922;DHT22;15261;50.356;10.340;2022-12-18T04:56:38;-10.20;99.90
27922;DHT22;15261;50.356;10.340;2022-12-18T04:59:05;-10.30;99.90
27922;DHT22;15261;50.356;10.340;2022-12-18T05:01:33;-10.30;99.90
27922;DHT22;15261;50.356;10.340;2022-12-18T05:03:58;-10.40;99.90
27922;DHT22;15261;50.356;10.340;2022-12-18T05:06:24;-10.40;99.90
27922;DHT22;15261;50.356;10.340;2022-12-18T05:08:49;-10.50;99.90
27922;DHT22;15261;50.356;10.340;2022-12-18T05:11:15;-10.50;99.90
27922;DHT22;15261;50.356;10.340;2022-12-18T05:13:42;-10.50;99.90
27922;DHT22;15261;50.356;10.340;2022-12-18T05:16:08;-10.50;99.90
27922;DHT22;15261;50.356;10.340;2022-12-18T05:18:34;-10.50;99.90
27922;DHT22;15261;50.356;10.340;2022-12-18T05:21:00;-10.30;99.90
27922;DHT22;15261;50.356;10.340;2022-12-18T05:23:25;-10.30;99.90
27922;DHT22;15261;50.356;10.340;2022-12-18T05:25:59;-10.30;99.90
27922;DHT22;15261;50.356;10.340;2022-12-18T05:28:27;-10.30;99.90
27922;DHT22;15261;50.356;10.340;2022-12-18T05:30:55;-10.30;99.90
27922;DHT22;15261;50.356;10.340;2022-12-18T05:33:22;-10.30;99.90
27922;DHT22;15261;50.356;10.340;2022-12-18T05:35:52;-10.20;99.90
27922;DHT22;15261;50.356;10.340;2022-12-18T05:38:19;-10.20;99.90
27922;DHT22;15261;50.356;10.340;2022-12-18T05:40:46;-10.20;99.90
27922;DHT22;15261;50.356;10.340;2022-12-18T05:43:25;-10.40;99.90
27922;DHT22;15261;50.356;10.340;2022-12-18T05:45:52;-10.30;99.90
27922;DHT22;15261;50.356;10.340;2022-12-18T05:48:18;-10.50;99.90
27922;DHT22;15261;50.356;10.340;2022-12-18T05:50:45;-10.60;99.90
27922;DHT22;15261;50.356;10.340;2022-12-18T05:53:12;-10.80;99.90
27922;DHT22;15261;50.356;10.340;2022-12-18T05:55:39;-10.90;99.90
27922;DHT22;15261;50.356;10.340;2022-12-18T05:58:07;-10.90;99.90
27922;DHT22;15261;50.356;10.340;2022-12-18T06:00:36;-11.00;99.90
27922;DHT22;15261;50.356;10.340;2022-12-18T06:03:06;-11.00;99.90
27922;DHT22;15261;50.356;10.340;2022-12-18T06:05:50;-11.00;99.90
27922;DHT22;15261;50.356;10.340;2022-12-18T06:08:15;-10.90;99.90
27922;DHT22;15261;50.356;10.340;2022-12-18T06:10:41;-10.90;99.90
27922;DHT22;15261;50.356;10.340;2022-12-18T06:13:07;-11.00;99.90
27922;DHT22;15261;50.356;10.340;2022-12-18T06:15:35;-10.90;99.90
27922;DHT22;15261;50.356;10.340;2022-12-18T06:18:01;-10.90;99.90
27922;DHT22;15261;50.356;10.340;2022-12-18T06:20:26;-10.90;99.90
27922;DHT22;15261;50.356;10.340;2022-12-18T06:23:02;-10.90;99.90
27922;DHT22;15261;50.356;10.340;2022-12-18T06:25:28;-10.90;99.90
27922;DHT22;15261;50.356;10.340;2022-12-18T06:27:53;-10.80;99.90
27922;DHT22;15261;50.356;10.340;2022-12-18T06:30:19;-10.80;99.90
27922;DHT22;15261;50.356;10.340;2022-12-18T06:32:45;-10.70;99.90
27922;DHT22;15261;50.356;10.340;2022-12-18T06:35:10;-10.70;99.90
27922;DHT22;15261;50.356;10.340;2022-12-18T06:37:36;-10.70;99.90
27922;DHT22;15261;50.356;10.340;2022-12-18T06:40:01;-10.60;99.90
27922;DHT22;15261;50.356;10.340;2022-12-18T06:42:28;-10.60;99.90
27922;DHT22;15261;50.356;10.340;2022-12-18T06:44:54;-10.60;99.90
27922;DHT22;15261;50.356;10.340;2022-12-18T06:47:20;-10.50;99.90
27922;DHT22;15261;50.356;10.340;2022-12-18T06:49:45;-10.50;99.90
27922;DHT22;15261;50.356;10.340;2022-12-18T06:52:11;-10.50;99.90
27922;DHT22;15261;50.356;10.340;2022-12-18T06:54:36;-10.50;99.90
27922;DHT22;15261;50.356;10.340;2022-12-18T06:57:02;-10.60;99.90
27922;DHT22;15261;50.356;10.340;2022-12-18T06:59:27;-10.50;99.90
27922;DHT22;15261;50.356;10.340;2022-12-18T07:01:53;-10.50;99.90
27922;DHT22;15261;50.356;10.340;2022-12-18T07:04:18;-10.50;99.90
27922;DHT22;15261;50.356;10.340;2022-12-18T07:06:44;-10.50;99.90
27922;DHT22;15261;50.356;10.340;2022-12-18T07:09:09;-10.50;99.90
27922;DHT22;15261;50.356;10.340;2022-12-18T07:11:35;-10.50;99.90
27922;DHT22;15261;50.356;10.340;2022-12-18T07:14:01;-10.40;99.90
27922;DHT22;15261;50.356;10.340;2022-12-18T07:16:26;-10.60;99.90
27922;DHT22;15261;50.356;10.340;2022-12-18T07:18:55;-10.60;99.90
27922;DHT22;15261;50.356;10.340;2022-12-18T07:21:22;-10.50;99.90
27922;DHT22;15261;50.356;10.340;2022-12-18T07:23:47;-10.70;99.90
27922;DHT22;15261;50.356;10.340;2022-12-18T07:26:14;-10.70;99.90
27922;DHT22;15261;50.356;10.340;2022-12-18T07:28:41;-10.70;99.90
27922;DHT22;15261;50.356;10.340;2022-12-18T07:31:12;-10.80;99.90
27922;DHT22;15261;50.356;10.340;2022-12-18T07:33:38;-10.80;99.90
27922;DHT22;15261;50.356;10.340;2022-12-18T07:36:06;-10.70;99.90
27922;DHT22;15261;50.356;10.340;2022-12-18T07:38:33;-10.70;99.90
27922;DHT22;15261;50.356;10.340;2022-12-18T07:41:04;-10.80;99.90
27922;DHT22;15261;50.356;10.340;2022-12-18T07:43:30;-10.90;99.90
27922;DHT22;15261;50.356;10.340;2022-12-18T07:45:56;-10.90;99.90
27922;DHT22;15261;50.356;10.340;2022-12-18T07:48:21;-10.80;99.90
27922;DHT22;15261;50.356;10.340;2022-12-18T07:50:47;-10.80;99.90
27922;DHT22;15261;50.356;10.340;2022-12-18T07:53:13;-10.70;99.90
27922;DHT22;15261;50.356;10.340;2022-12-18T07:55:40;-10.60;99.90
27922;DHT22;15261;50.356;10.340;2022-12-18T07:58:06;-10.60;99.90
27922;DHT22;15261;50.356;10.340;2022-12-18T08:00:32;-10.60;99.90
27922;DHT22;15261;50.356;10.340;2022-12-18T08:02:58;-10.60;99.90
27922;DHT22;15261;50.356;10.340;2022-12-18T08:05:24;-10.50;99.90
27922;DHT22;15261;50.356;10.340;2022-12-18T08:07:49;-10.40;99.90
27922;DHT22;15261;50.356;10.340;2022-12-18T08:10:16;-10.20;99.90
27922;DHT22;15261;50.356;10.340;2022-12-18T08:13:04;-10.00;99.90
27922;DHT22;15261;50.356;10.340;2022-12-18T08:15:32;-9.90;99.90
27922;DHT22;15261;50.356;10.340;2022-12-18T08:18:14;-9.80;99.90
27922;DHT22;15261;50.356;10.340;2022-12-18T08:24:02;-9.70;99.90
27922;DHT22;15261;50.356;10.340;2022-12-18T08:26:57;-9.80;99.90
27922;DHT22;15261;50.356;10.340;2022-12-18T08:29:31;-9.70;99.90
27922;DHT22;15261;50.356;10.340;2022-12-18T08:32:30;-9.60;99.90
27922;DHT22;15261;50.356;10.340;2022-12-18T08:34:56;-9.50;99.90
27922;DHT22;15261;50.356;10.340;2022-12-18T08:37:24;-9.50;99.90
27922;DHT22;15261;50.356;10.340;2022-12-18T08:39:50;-9.50;99.90
27922;DHT22;15261;50.356;10.340;2022-12-18T08:45:37;-9.30;99.90
27922;DHT22;15261;50.356;10.340;2022-12-18T08:48:03;-9.20;99.90
27922;DHT22;15261;50.356;10.340;2022-12-18T08:50:28;-9.10;99.90
27922;DHT22;15261;50.356;10.340;2022-12-18T08:52:54;-9.10;99.90
27922;DHT22;15261;50.356;10.340;2022-12-18T08:55:19;-9.00;99.90
27922;DHT22;15261;50.356;10.340;2022-12-18T08:58:03;-8.90;99.90
27922;DHT22;15261;50.356;10.340;2022-12-18T09:03:44;-8.60;99.90
27922;DHT22;15261;50.356;10.340;2022-12-18T09:06:17;-8.40;99.90
27922;DHT22;15261;50.356;10.340;2022-12-18T09:08:44;-8.40;99.90
27922;DHT22;15261;50.356;10.340;2022-12-18T09:14:17;-8.30;99.90
27922;DHT22;15261;50.356;10.340;2022-12-18T09:16:53;-8.20;99.90
27922;DHT22;15261;50.356;10.340;2022-12-18T09:19:52;-8.10;99.90
27922;DHT22;15261;50.356;10.340;2022-12-18T09:22:18;-8.00;99.90
27922;DHT22;15261;50.356;10.340;2022-12-18T09:24:44;-7.90;99.90
27922;DHT22;15261;50.356;10.340;2022-12-18T09:27:10;-7.80;99.90
27922;DHT22;15261;50.356;10.340;2022-12-18T09:29:35;-7.70;99.90
27922;DHT22;15261;50.356;10.340;2022-12-18T09:32:02;-7.70;99.90
27922;DHT22;15261;50.356;10.340;2022-12-18T09:34:41;-7.60;99.90
27922;DHT22;15261;50.356;10.340;2022-12-18T09:37:07;-7.50;99.90
27922;DHT22;15261;50.356;10.340;2022-12-18T09:39:55;-7.50;99.90
27922;DHT22;15261;50.356;10.340;2022-12-18T09:42:26;-7.40;99.90
27922;DHT22;15261;50.356;10.340;2022-12-18T09:44:54;-7.30;99.90
27922;DHT22;15261;50.356;10.340;2022-12-18T09:47:39;-7.20;99.90
27922;DHT22;15261;50.356;10.340;2022-12-18T09:50:40;-7.10;99.90
27922;DHT22;15261;50.356;10.340;2022-12-18T09:53:24;-6.90;99.90
27922;DHT22;15261;50.356;10.340;2022-12-18T09:55:52;-6.90;99.90
27922;DHT22;15261;50.356;10.340;2022-12-18T10:01:28;-6.60;99.90
27922;DHT22;15261;50.356;10.340;2022-12-18T10:03:54;-6.60;99.90
27922;DHT22;15261;50.356;10.340;2022-12-18T10:09:32;-6.60;99.90
27922;DHT22;15261;50.356;10.340;2022-12-18T10:15:35;-6.60;99.90
27922;DHT22;15261;50.356;10.340;2022-12-18T10:19:24;-6.50;99.90
27922;DHT22;15261;50.356;10.340;2022-12-18T10:21:21;-6.50;99.90
27922;DHT22;15261;50.356;10.340;2022-12-18T10:24:15;-6.40;99.90
27922;DHT22;15261;50.356;10.340;2022-12-18T10:26:43;-6.40;99.90
27922;DHT22;15261;50.356;10.340;2022-12-18T10:29:14;-6.30;99.90
27922;DHT22;15261;50.356;10.340;2022-12-18T10:31:40;-6.30;99.90
27922;DHT22;15261;50.356;10.340;2022-12-18T10:34:10;-6.30;99.90
27922;DHT22;15261;50.356;10.340;2022-12-18T10:37:03;-6.20;99.90
27922;DHT22;15261;50.356;10.340;2022-12-18T10:43:13;-6.10;99.90
27922;DHT22;15261;50.356;10.340;2022-12-18T10:45:40;-6.10;99.90
27922;DHT22;15261;50.356;10.340;2022-12-18T10:48:18;-6.10;99.90
27922;DHT22;15261;50.356;10.340;2022-12-18T10:50:54;-6.10;99.90
27922;DHT22;15261;50.356;10.340;2022-12-18T10:53:26;-6.10;99.90
27922;DHT22;15261;50.356;10.340;2022-12-18T10:55:54;-6.20;99.90
27922;DHT22;15261;50.356;10.340;2022-12-18T10:58:33;-6.10;99.90
27922;DHT22;15261;50.356;10.340;2022-12-18T11:01:16;-6.20;99.90
27922;DHT22;15261;50.356;10.340;2022-12-18T11:04:08;-6.20;99.90
27922;DHT22;15261;50.356;10.340;2022-12-18T11:06:34;-6.20;99.90
27922;DHT22;15261;50.356;10.340;2022-12-18T11:09:36;-6.30;99.90
27922;DHT22;15261;50.356;10.340;2022-12-18T11:12:27;-6.20;99.90
27922;DHT22;15261;50.356;10.340;2022-12-18T11:18:42;-6.10;99.90
27922;DHT22;15261;50.356;10.340;2022-12-18T11:24:32;-6.00;99.90
27922;DHT22;15261;50.356;10.340;2022-12-18T11:27:18;-6.00;99.90
27922;DHT22;15261;50.356;10.340;2022-12-18T11:33:29;-5.90;99.90
27922;DHT22;15261;50.356;10.340;2022-12-18T11:38:55;-5.70;99.90
27922;DHT22;15261;50.356;10.340;2022-12-18T11:41:35;-5.50;99.90
27922;DHT22;15261;50.356;10.340;2022-12-18T11:44:26;-5.40;99.90
27922;DHT22;15261;50.356;10.340;2022-12-18T11:47:01;-5.40;99.90
27922;DHT22;15261;50.356;10.340;2022-12-18T11:49:35;-5.50;99.90
27922;DHT22;15261;50.356;10.340;2022-12-18T11:54:37;-5.40;99.90
27922;DHT22;15261;50.356;10.340;2022-12-18T11:57:40;-5.30;99.90
27922;DHT22;15261;50.356;10.340;2022-12-18T12:03:58;-5.20;99.90
27922;DHT22;15261;50.356;10.340;2022-12-18T12:12:24;-5.10;99.90
27922;DHT22;15261;50.356;10.340;2022-12-18T12:17:55;-5.00;99.90
27922;DHT22;15261;50.356;10.340;2022-12-18T12:20:47;-5.00;99.90
27922;DHT22;15261;50.356;10.340;2022-12-18T12:26:08;-4.90;99.90
27922;DHT22;15261;50.356;10.340;2022-12-18T12:41:06;-4.60;99.90
27922;DHT22;15261;50.356;10.340;2022-12-18T12:43:58;-4.50;99.90
27922;DHT22;15261;50.356;10.340;2022-12-18T12:46:50;-4.50;99.90
27922;DHT22;15261;50.356;10.340;2022-12-18T12:49:44;-4.50;99.90
27922;DHT22;15261;50.356;10.340;2022-12-18T12:52:29;-4.40;99.90
27922;DHT22;15261;50.356;10.340;2022-12-18T12:55:24;-4.40;99.90
27922;DHT22;15261;50.356;10.340;2022-12-18T12:58:07;-4.40;99.90
27922;DHT22;15261;50.356;10.340;2022-12-18T13:10:25;-4.30;99.90
27922;DHT22;15261;50.356;10.340;2022-12-18T13:13:23;-4.40;99.90
27922;DHT22;15261;50.356;10.340;2022-12-18T13:19:30;-4.30;99.90
27922;DHT22;15261;50.356;10.340;2022-12-18T13:22:30;-4.30;99.90
27922;DHT22;15261;50.356;10.340;2022-12-18T13:30:51;-4.20;99.90
27922;DHT22;15261;50.356;10.340;2022-12-18T13:45:00;-4.20;99.90
27922;DHT22;15261;50.356;10.340;2022-12-18T13:47:43;-4.30;99.90
27922;DHT22;15261;50.356;10.340;2022-12-18T13:50:12;-4.40;99.90
27922;DHT22;15261;50.356;10.340;2022-12-18T13:56:00;-4.40;99.90
27922;DHT22;15261;50.356;10.340;2022-12-18T13:58:27;-4.50;99.90
27922;DHT22;15261;50.356;10.340;2022-12-18T14:00:52;-4.50;99.90
27922;DHT22;15261;50.356;10.340;2022-12-18T14:03:21;-4.40;99.90
27922;DHT22;15261;50.356;10.340;2022-12-18T14:06:05;-4.40;99.90
27922;DHT22;15261;50.356;10.340;2022-12-18T14:12:00;-4.40;99.90
27922;DHT22;15261;50.356;10.340;2022-12-18T14:21:37;-4.60;99.90
27922;DHT22;15261;50.356;10.340;2022-12-18T14:24:17;-4.70;99.90
27922;DHT22;15261;50.356;10.340;2022-12-18T14:33:27;-5.00;99.90
27922;DHT22;15261;50.356;10.340;2022-12-18T14:36:15;-5.00;99.90
27922;DHT22;15261;50.356;10.340;2022-12-18T14:39:03;-5.00;99.90
27922;DHT22;15261;50.356;10.340;2022-12-18T14:41:28;-5.00;99.90
27922;DHT22;15261;50.356;10.340;2022-12-18T14:43:54;-5.10;99.90
27922;DHT22;15261;50.356;10.340;2022-12-18T14:46:36;-5.10;99.90
27922;DHT22;15261;50.356;10.340;2022-12-18T14:52:26;-5.20;99.90
27922;DHT22;15261;50.356;10.340;2022-12-18T14:54:53;-5.30;99.90
27922;DHT22;15261;50.356;10.340;2022-12-18T14:57:24;-5.30;99.90
27922;DHT22;15261;50.356;10.340;2022-12-18T15:00:14;-5.30;99.90
27922;DHT22;15261;50.356;10.340;2022-12-18T15:02:40;-5.30;99.90
27922;DHT22;15261;50.356;10.340;2022-12-18T15:05:33;-5.40;99.90
27922;DHT22;15261;50.356;10.340;2022-12-18T15:08:35;-5.40;99.90
27922;DHT22;15261;50.356;10.340;2022-12-18T15:17:39;-5.40;99.90
27922;DHT22;15261;50.356;10.340;2022-12-18T15:20:14;-5.50;99.90
27922;DHT22;15261;50.356;10.340;2022-12-18T15:25:37;-5.60;99.90
27922;DHT22;15261;50.356;10.340;2022-12-18T15:31:32;-5.60;99.90
27922;DHT22;15261;50.356;10.340;2022-12-18T15:36:33;-5.60;99.90
27922;DHT22;15261;50.356;10.340;2022-12-18T15:39:20;-5.60;99.90
27922;DHT22;15261;50.356;10.340;2022-12-18T15:41:56;-5.60;99.90
27922;DHT22;15261;50.356;10.340;2022-12-18T15:44:46;-5.50;99.90
27922;DHT22;15261;50.356;10.340;2022-12-18T15:47:13;-5.50;99.90
27922;DHT22;15261;50.356;10.340;2022-12-18T15:49:39;-5.50;99.90
27922;DHT22;15261;50.356;10.340;2022-12-18T15:52:05;-5.40;99.90
27922;DHT22;15261;50.356;10.340;2022-12-18T15:54:30;-5.40;99.90
27922;DHT22;15261;50.356;10.340;2022-12-18T15:57:14;-5.40;99.90
27922;DHT22;15261;50.356;10.340;2022-12-18T15:59:56;-5.50;99.90
27922;DHT22;15261;50.356;10.340;2022-12-18T16:02:33;-5.60;99.90
27922;DHT22;15261;50.356;10.340;2022-12-18T16:05:23;-5.60;99.90
27922;DHT22;15261;50.356;10.340;2022-12-18T16:08:19;-5.60;99.90
27922;DHT22;15261;50.356;10.340;2022-12-18T16:10:45;-5.60;99.90
27922;DHT22;15261;50.356;10.340;2022-12-18T16:13:15;-5.60;99.90
27922;DHT22;15261;50.356;10.340;2022-12-18T16:15:53;-5.50;99.90
27922;DHT22;15261;50.356;10.340;2022-12-18T16:18:19;-5.60;99.90
27922;DHT22;15261;50.356;10.340;2022-12-18T16:20:44;-5.50;99.90
27922;DHT22;15261;50.356;10.340;2022-12-18T16:23:19;-5.60;99.90
27922;DHT22;15261;50.356;10.340;2022-12-18T16:25:47;-5.60;99.90
27922;DHT22;15261;50.356;10.340;2022-12-18T16:28:28;-5.60;99.90
27922;DHT22;15261;50.356;10.340;2022-12-18T16:31:05;-5.60;99.90
27922;DHT22;15261;50.356;10.340;2022-12-18T16:33:55;-5.60;99.90
27922;DHT22;15261;50.356;10.340;2022-12-18T16:36:41;-5.60;99.90
27922;DHT22;15261;50.356;10.340;2022-12-18T16:39:11;-5.60;99.90
27922;DHT22;15261;50.356;10.340;2022-12-18T16:41:57;-5.60;99.90
27922;DHT22;15261;50.356;10.340;2022-12-18T16:44:23;-5.70;99.90
27922;DHT22;15261;50.356;10.340;2022-12-18T16:46:50;-5.70;99.90
27922;DHT22;15261;50.356;10.340;2022-12-18T16:49:29;-5.70;99.90
27922;DHT22;15261;50.356;10.340;2022-12-18T16:52:02;-5.70;99.90
27922;DHT22;15261;50.356;10.340;2022-12-18T16:54:28;-5.70;99.90
27922;DHT22;15261;50.356;10.340;2022-12-18T16:56:58;-5.70;99.90
27922;DHT22;15261;50.356;10.340;2022-12-18T17:09:05;-5.70;99.90
27922;DHT22;15261;50.356;10.340;2022-12-18T17:11:48;-5.70;99.90
27922;DHT22;15261;50.356;10.340;2022-12-18T17:14:32;-5.70;99.90
27922;DHT22;15261;50.356;10.340;2022-12-18T17:17:33;-5.60;99.90
27922;DHT22;15261;50.356;10.340;2022-12-18T17:23:23;-5.60;99.90
27922;DHT22;15261;50.356;10.340;2022-12-18T17:25:49;-5.70;99.90
27922;DHT22;15261;50.356;10.340;2022-12-18T17:34:28;-5.60;99.90
27922;DHT22;15261;50.356;10.340;2022-12-18T17:36:54;-5.70;99.90
27922;DHT22;15261;50.356;10.340;2022-12-18T17:39:20;-5.60;99.90
27922;DHT22;15261;50.356;10.340;2022-12-18T17:41:46;-5.50;99.90
27922;DHT22;15261;50.356;10.340;2022-12-18T17:44:31;-5.50;99.90
27922;DHT22;15261;50.356;10.340;2022-12-18T17:46:59;-5.40;99.90
27922;DHT22;15261;50.356;10.340;2022-12-18T17:49:44;-5.40;99.90
27922;DHT22;15261;50.356;10.340;2022-12-18T17:52:10;-5.40;99.90
27922;DHT22;15261;50.356;10.340;2022-12-18T17:54:35;-5.40;99.90
27922;DHT22;15261;50.356;10.340;2022-12-18T17:57:19;-5.40;99.90
27922;DHT22;15261;50.356;10.340;2022-12-18T17:59:44;-5.30;99.90
27922;DHT22;15261;50.356;10.340;2022-12-18T18:05:12;-5.40;99.90
27922;DHT22;15261;50.356;10.340;2022-12-18T18:11:03;-5.40;99.90
27922;DHT22;15261;50.356;10.340;2022-12-18T18:13:52;-5.40;99.90
27922;DHT22;15261;50.356;10.340;2022-12-18T18:16:37;-5.40;99.90
27922;DHT22;15261;50.356;10.340;2022-12-18T18:22:12;-5.40;99.90
27922;DHT22;15261;50.356;10.340;2022-12-18T18:25:13;-5.40;99.90
27922;DHT22;15261;50.356;10.340;2022-12-18T18:28:05;-5.40;99.90
27922;DHT22;15261;50.356;10.340;2022-12-18T18:30:37;-5.40;99.90
27922;DHT22;15261;50.356;10.340;2022-12-18T18:33:16;-5.30;99.90
27922;DHT22;15261;50.356;10.340;2022-12-18T18:35:42;-5.20;99.90
27922;DHT22;15261;50.356;10.340;2022-12-18T18:38:08;-5.20;99.90
27922;DHT22;15261;50.356;10.340;2022-12-18T18:40:34;-5.20;99.90
27922;DHT22;15261;50.356;10.340;2022-12-18T18:43:06;-5.20;99.90
27922;DHT22;15261;50.356;10.340;2022-12-18T18:45:31;-5.30;99.90
27922;DHT22;15261;50.356;10.340;2022-12-18T18:48:25;-5.30;99.90
27922;DHT22;15261;50.356;10.340;2022-12-18T18:51:09;-5.30;99.90
27922;DHT22;15261;50.356;10.340;2022-12-18T18:53:41;-5.40;99.90
27922;DHT22;15261;50.356;10.340;2022-12-18T18:56:19;-5.40;99.90
27922;DHT22;15261;50.356;10.340;2022-12-18T18:58:53;-5.30;99.90
27922;DHT22;15261;50.356;10.340;2022-12-18T19:01:42;-5.30;99.90
27922;DHT22;15261;50.356;10.340;2022-12-18T19:04:31;-5.30;99.90
27922;DHT22;15261;50.356;10.340;2022-12-18T19:07:26;-5.20;99.90
27922;DHT22;15261;50.356;10.340;2022-12-18T19:10:29;-5.30;99.90